createdAt,value
2017-12-09T00:00:46.424Z,-0.10
2017-12-09T00:06:14.664Z,-0.20
2017-12-09T00:11:42.812Z,-0.20
2017-12-09T00:17:11.343Z,-0.30
2017-12-09T00:22:42.712Z,-0.30
2017-12-09T00:28:10.863Z,-0.30
2017-12-09T00:33:42.516Z,-0.30
2017-12-09T00:39:11.497Z,-0.20
2017-12-09T00:44:39.654Z,-0.20
2017-12-09T00:50:15.039Z,-0.20
2017-12-09T00:55:43.189Z,-0.10
2017-12-09T01:01:12.125Z,-0.10
2017-12-09T01:06:46.554Z,-0.10
2017-12-09T01:12:15.096Z,-0.10
2017-12-09T01:18:00.971Z,-0.10
2017-12-09T01:23:29.144Z,-0.10
2017-12-09T01:28:57.332Z,-0.20
2017-12-09T01:34:25.508Z,-0.10
2017-12-09T01:39:54.842Z,-0.10
2017-12-09T01:45:23.032Z,-0.10
2017-12-09T01:50:51.200Z,-0.20
2017-12-09T01:56:21.092Z,-0.40
2017-12-09T02:01:49.287Z,-0.50
2017-12-09T02:07:17.461Z,-0.50
2017-12-09T02:12:45.691Z,-0.50
2017-12-09T02:18:13.854Z,-0.50
2017-12-09T02:23:42.066Z,-0.50
2017-12-09T02:29:18.350Z,-0.50
2017-12-09T02:34:46.514Z,-0.50
2017-12-09T02:40:14.667Z,-0.60
2017-12-09T02:45:43.907Z,-0.60
2017-12-09T02:51:12.068Z,-0.60
2017-12-09T02:56:50.624Z,-0.70
2017-12-09T03:02:18.790Z,-0.80
2017-12-09T03:07:46.949Z,-0.90
2017-12-09T03:13:15.094Z,-0.90
2017-12-09T03:18:43.263Z,-1.00
2017-12-09T03:24:12.306Z,-1.10
2017-12-09T03:29:44.886Z,-1.10
2017-12-09T03:35:13.040Z,-1.20
2017-12-09T03:40:41.173Z,-1.30
2017-12-09T03:46:21.202Z,-1.30
2017-12-09T03:51:49.672Z,-1.30
2017-12-09T03:57:17.828Z,-1.30
2017-12-09T04:02:53.543Z,-1.40
2017-12-09T04:08:25.840Z,-1.40
2017-12-09T04:13:54.023Z,-1.50
2017-12-09T04:19:22.191Z,-1.60
2017-12-09T04:24:50.355Z,-1.60
2017-12-09T04:30:18.518Z,-1.60
2017-12-09T04:35:46.698Z,-1.70
2017-12-09T04:41:15.794Z,-1.70
2017-12-09T04:46:44.752Z,-1.60
2017-12-09T04:52:12.911Z,-1.60
2017-12-09T04:57:41.288Z,-1.60
2017-12-09T05:03:09.518Z,-1.60
2017-12-09T05:08:37.777Z,-1.60
2017-12-09T05:14:05.930Z,-1.50
2017-12-09T05:19:34.230Z,-1.60
2017-12-09T05:25:10.648Z,-1.50
2017-12-09T05:30:38.847Z,-1.50
2017-12-09T05:36:07.000Z,-1.50
2017-12-09T05:41:37.104Z,-1.50
2017-12-09T05:47:05.283Z,-1.50
2017-12-09T05:52:37.281Z,-1.60
2017-12-09T05:58:05.955Z,-1.70
2017-12-09T06:03:38.904Z,-1.80
2017-12-09T06:09:09.847Z,-1.80
2017-12-09T06:14:38.042Z,-1.80
2017-12-09T06:20:06.673Z,-1.70
2017-12-09T06:25:34.857Z,-1.70
2017-12-09T06:31:03.776Z,-1.70
2017-12-09T06:36:38.005Z,-1.70
2017-12-09T06:42:07.921Z,-1.70
2017-12-09T06:47:37.315Z,-1.70
2017-12-09T06:53:05.444Z,-1.70
2017-12-09T06:58:33.566Z,-1.70
2017-12-09T07:04:01.743Z,-1.60
2017-12-09T07:09:29.965Z,-1.70
2017-12-09T07:14:59.379Z,-1.60
2017-12-09T07:20:27.535Z,-1.70
2017-12-09T07:25:55.716Z,-1.70
2017-12-09T07:31:28.969Z,-1.70
2017-12-09T07:36:57.110Z,-1.70
2017-12-09T07:42:25.285Z,-1.70
2017-12-09T07:47:54.360Z,-1.70
2017-12-09T07:53:23.265Z,-1.70
2017-12-09T07:58:51.438Z,-1.70
2017-12-09T08:04:29.065Z,-1.60
2017-12-09T08:09:57.265Z,-1.70
2017-12-09T08:15:27.168Z,-1.60
2017-12-09T08:20:56.066Z,-1.50
2017-12-09T08:26:28.213Z,-1.50
2017-12-09T08:31:57.156Z,-1.40
2017-12-09T08:37:26.062Z,-1.40
2017-12-09T08:42:54.206Z,-1.40
2017-12-09T08:48:23.114Z,-1.40
2017-12-09T08:53:51.233Z,-1.40
2017-12-09T08:59:24.397Z,-1.30
2017-12-09T09:04:53.307Z,-1.20
2017-12-09T09:10:21.476Z,-1.20
2017-12-09T09:15:49.602Z,-1.20
2017-12-09T09:21:17.774Z,-1.20
2017-12-09T09:26:45.920Z,-1.30
2017-12-09T09:32:14.834Z,-1.20
2017-12-09T09:37:42.969Z,-1.30
2017-12-09T09:43:26.528Z,-1.10
2017-12-09T09:48:54.653Z,-1.20
2017-12-09T09:54:23.689Z,-1.10
2017-12-09T09:59:58.937Z,-1.10
2017-12-09T10:05:27.099Z,-1.10
2017-12-09T10:10:55.264Z,-1.10
2017-12-09T10:16:24.388Z,-1.10
2017-12-09T10:21:53.517Z,-0.90
2017-12-09T10:27:21.663Z,-0.90
2017-12-09T10:32:49.816Z,-0.90
2017-12-09T10:38:19.938Z,-0.90
2017-12-09T10:43:48.080Z,-0.80
2017-12-09T10:49:16.286Z,-0.80
2017-12-09T10:54:52.770Z,-0.80
2017-12-09T11:00:20.914Z,-0.70
2017-12-09T11:05:51.845Z,-0.70
2017-12-09T11:11:20.011Z,-0.70
2017-12-09T11:16:53.943Z,-0.60
2017-12-09T11:22:22.476Z,-0.60
2017-12-09T11:27:55.125Z,-0.50
2017-12-09T11:33:27.421Z,-0.50
2017-12-09T11:38:58.960Z,-0.60
2017-12-09T11:44:28.011Z,-0.50
2017-12-09T11:49:56.166Z,-0.50
2017-12-09T11:55:24.294Z,-0.50
2017-12-09T12:00:54.402Z,-0.60
2017-12-09T12:06:23.341Z,-0.30
2017-12-09T12:11:51.536Z,-0.40
2017-12-09T12:17:19.677Z,-0.20
2017-12-09T12:22:48.613Z,-0.20
2017-12-09T12:28:18.294Z,-0.20
2017-12-09T12:33:47.436Z,-0.20
2017-12-09T12:39:15.593Z,-0.20
2017-12-09T12:44:44.858Z,-0.10
2017-12-09T12:50:13.024Z,-0.10
2017-12-09T12:55:41.179Z,-0.10
2017-12-09T13:01:09.377Z,-0.20
2017-12-09T13:06:37.551Z,-0.30
2017-12-09T13:12:06.727Z,-0.30
2017-12-09T13:17:34.874Z,-0.20
2017-12-09T13:23:03.939Z,0.00
2017-12-09T13:28:32.098Z,0.10
2017-12-09T13:34:00.278Z,0.30
2017-12-09T13:39:28.634Z,0.10
2017-12-09T13:44:57.534Z,1.20
2017-12-09T13:50:25.868Z,1.20
2017-12-09T13:55:54.017Z,0.60
2017-12-09T14:01:24.324Z,0.40
2017-12-09T14:06:52.589Z,0.60
2017-12-09T14:12:27.440Z,1.10
2017-12-09T14:17:55.563Z,1.90
2017-12-09T14:23:23.698Z,1.90
2017-12-09T14:28:52.751Z,2.00
2017-12-09T14:34:21.863Z,1.70
2017-12-09T14:39:50.210Z,1.20
2017-12-09T14:45:18.356Z,0.60
2017-12-09T14:50:47.292Z,0.00
2017-12-09T14:56:15.429Z,0.00
2017-12-09T15:01:43.596Z,-0.20
2017-12-09T15:07:12.285Z,-0.30
2017-12-09T15:12:54.295Z,-0.50
2017-12-09T15:18:25.205Z,-0.70
2017-12-09T15:23:53.354Z,-0.80
2017-12-09T15:29:21.525Z,-0.80
2017-12-09T15:34:49.667Z,-0.80
2017-12-09T15:40:17.933Z,-0.90
2017-12-09T15:45:46.080Z,-0.90
2017-12-09T15:51:14.325Z,-1.00
2017-12-09T15:56:43.289Z,-1.10
2017-12-09T16:02:11.427Z,-1.20
2017-12-09T16:07:39.567Z,-1.20
2017-12-09T16:13:07.719Z,-1.30
2017-12-09T16:18:36.642Z,-1.40
2017-12-09T16:24:08.242Z,-1.40
2017-12-09T16:29:36.388Z,-1.40
2017-12-09T16:35:05.561Z,-1.50
2017-12-09T16:40:45.030Z,-1.50
2017-12-09T16:46:13.186Z,-1.50
2017-12-09T16:51:43.311Z,-1.60
2017-12-09T16:57:13.472Z,-1.60
2017-12-09T17:02:43.362Z,-1.70
2017-12-09T17:08:11.616Z,-1.70
2017-12-09T17:13:39.754Z,-1.70
2017-12-09T17:19:07.984Z,-1.70
2017-12-09T17:24:37.841Z,-1.80
2017-12-09T17:30:05.988Z,-1.80
2017-12-09T17:35:35.395Z,-1.80
2017-12-09T17:41:10.690Z,-1.80
2017-12-09T17:46:38.967Z,-1.80
2017-12-09T17:52:11.320Z,-1.90
2017-12-09T17:57:39.500Z,-1.90
2017-12-09T18:03:13.575Z,-1.90
2017-12-09T18:08:41.702Z,-2.00
2017-12-09T18:14:09.874Z,-2.00
2017-12-09T18:19:49.433Z,-2.00
2017-12-09T18:25:17.685Z,-2.00
2017-12-09T18:30:45.855Z,-2.00
2017-12-09T18:36:14.002Z,-2.10
2017-12-09T18:41:42.199Z,-2.10
2017-12-09T18:47:10.328Z,-2.20
2017-12-09T18:52:38.512Z,-2.20
2017-12-09T18:58:07.547Z,-2.20
2017-12-09T19:03:36.459Z,-2.20
2017-12-09T19:09:04.679Z,-2.20
2017-12-09T19:14:32.896Z,-2.20
2017-12-09T19:20:02.084Z,-2.20
2017-12-09T19:25:31.029Z,-2.20
2017-12-09T19:30:59.366Z,-2.20
2017-12-09T19:36:27.602Z,-2.20
2017-12-09T19:41:55.815Z,-2.20
2017-12-09T19:47:27.249Z,-2.20
2017-12-09T19:52:55.438Z,-2.30
2017-12-09T19:58:23.584Z,-2.30
2017-12-09T20:03:52.658Z,-2.30
2017-12-09T20:09:20.798Z,-2.30
2017-12-09T20:14:50.990Z,-2.30
2017-12-09T20:20:22.362Z,-2.30
2017-12-09T20:25:52.729Z,-2.30
2017-12-09T20:31:32.447Z,-2.30
2017-12-09T20:37:02.535Z,-2.30
2017-12-09T20:42:30.728Z,-2.40
2017-12-09T20:48:00.958Z,-2.40
2017-12-09T20:53:30.863Z,-2.40
2017-12-09T20:58:59.025Z,-2.50
2017-12-09T21:04:30.017Z,-2.40
2017-12-09T21:09:58.959Z,-2.50
2017-12-09T21:15:27.120Z,-2.50
2017-12-09T21:20:56.084Z,-2.50
2017-12-09T21:26:24.246Z,-2.50
2017-12-09T21:31:52.511Z,-2.40
2017-12-09T21:37:20.714Z,-2.40
2017-12-09T21:42:49.725Z,-2.30
2017-12-09T21:48:17.869Z,-2.30
2017-12-09T21:53:46.797Z,-2.30
2017-12-09T21:59:15.807Z,-2.30
2017-12-09T22:04:43.959Z,-2.30
2017-12-09T22:10:14.016Z,-2.30
2017-12-09T22:15:42.260Z,-2.30
2017-12-09T22:21:11.175Z,-2.30
2017-12-09T22:26:39.323Z,-2.30
2017-12-09T22:32:08.237Z,-2.40
2017-12-09T22:37:36.387Z,-2.40
2017-12-09T22:43:04.520Z,-2.40
2017-12-09T22:48:32.692Z,-2.40
2017-12-09T22:54:01.747Z,-2.40
2017-12-09T22:59:31.749Z,-2.40
2017-12-09T23:05:00.036Z,-2.40
2017-12-09T23:10:28.293Z,-2.40
2017-12-09T23:15:56.604Z,-2.40
2017-12-09T23:21:24.772Z,-2.40
2017-12-09T23:26:52.925Z,-2.30
2017-12-09T23:32:22.919Z,-2.30
2017-12-09T23:37:51.065Z,-2.30
2017-12-09T23:43:19.293Z,-2.30
2017-12-09T23:48:47.453Z,-2.20
2017-12-09T23:54:16.385Z,-2.30
2017-12-09T23:59:45.284Z,-2.40
